Terminal Aerodrome Forecast
Issued by NWS

Home | Current Version | Previous Version | Text Only | Print | Product List | Glossary On
Versions: 1 2 3 4 5 6 7 8 9 10 11 12 13 14 15 16 17 18 19 20 21
000
FTUS43 KDVN 252323
TAFBRL
TAF
KBRL 252323Z 2600/2624 32006KT P6SM BKN200
     FM260700 07003KT 4SM BR BKN200 PROB30 2612/2616 3SM TSRA BR
      BKN050CB
     FM261600 16006KT P6SM BKN200 PROB30 2616/2620 4SM TSRA BR
      BKN040CB=

USA.gov is the U.S. government's official web portal to all federal, state and local government web resources and services.